sensor_id;sensor_type;location;lat;lon;timestamp;P1;durP1;ratioP1;P2;durP2;ratioP2
11535;SDS011;5824;49.336;8.652;2023-02-28T00:02:16;3.30;;;2.47;;
11535;SDS011;5824;49.336;8.652;2023-02-28T00:04:44;4.73;;;2.80;;
11535;SDS011;5824;49.336;8.652;2023-02-28T00:07:10;5.70;;;2.97;;
11535;SDS011;5824;49.336;8.652;2023-02-28T00:09:35;3.23;;;2.40;;
11535;SDS011;5824;49.336;8.652;2023-02-28T00:12:01;3.33;;;2.57;;
11535;SDS011;5824;49.336;8.652;2023-02-28T00:14:35;3.77;;;2.67;;
11535;SDS011;5824;49.336;8.652;2023-02-28T00:17:01;4.40;;;2.80;;
11535;SDS011;5824;49.336;8.652;2023-02-28T00:19:27;3.33;;;2.90;;
11535;SDS011;5824;49.336;8.652;2023-02-28T00:21:52;3.80;;;3.13;;
11535;SDS011;5824;49.336;8.652;2023-02-28T00:24:18;3.47;;;2.57;;
11535;SDS011;5824;49.336;8.652;2023-02-28T00:26:43;4.70;;;2.80;;
11535;SDS011;5824;49.336;8.652;2023-02-28T00:29:09;3.73;;;3.07;;
11535;SDS011;5824;49.336;8.652;2023-02-28T00:31:35;7.20;;;2.60;;
11535;SDS011;5824;49.336;8.652;2023-02-28T00:34:00;6.30;;;3.80;;
11535;SDS011;5824;49.336;8.652;2023-02-28T00:36:26;5.63;;;3.03;;
11535;SDS011;5824;49.336;8.652;2023-02-28T00:38:51;5.17;;;3.23;;
11535;SDS011;5824;49.336;8.652;2023-02-28T00:41:17;3.47;;;3.03;;
11535;SDS011;5824;49.336;8.652;2023-02-28T00:43:43;3.47;;;2.60;;
11535;SDS011;5824;49.336;8.652;2023-02-28T00:46:08;3.03;;;2.73;;
11535;SDS011;5824;49.336;8.652;2023-02-28T00:48:34;5.20;;;3.07;;
11535;SDS011;5824;49.336;8.652;2023-02-28T00:51:00;9.73;;;3.40;;
11535;SDS011;5824;49.336;8.652;2023-02-28T00:53:26;5.83;;;3.33;;
11535;SDS011;5824;49.336;8.652;2023-02-28T00:55:51;4.00;;;2.90;;
11535;SDS011;5824;49.336;8.652;2023-02-28T00:58:17;3.07;;;2.67;;
11535;SDS011;5824;49.336;8.652;2023-02-28T01:00:43;3.40;;;2.77;;
11535;SDS011;5824;49.336;8.652;2023-02-28T01:03:08;4.13;;;3.10;;
11535;SDS011;5824;49.336;8.652;2023-02-28T01:05:34;3.93;;;3.03;;
11535;SDS011;5824;49.336;8.652;2023-02-28T01:07:59;3.90;;;2.80;;
11535;SDS011;5824;49.336;8.652;2023-02-28T01:10:25;3.97;;;3.00;;
11535;SDS011;5824;49.336;8.652;2023-02-28T01:12:52;3.53;;;3.23;;
11535;SDS011;5824;49.336;8.652;2023-02-28T01:15:18;4.23;;;3.00;;
11535;SDS011;5824;49.336;8.652;2023-02-28T01:17:43;4.30;;;3.07;;
11535;SDS011;5824;49.336;8.652;2023-02-28T01:20:09;3.97;;;2.73;;
11535;SDS011;5824;49.336;8.652;2023-02-28T01:22:35;6.73;;;3.30;;
11535;SDS011;5824;49.336;8.652;2023-02-28T01:25:00;4.63;;;3.23;;
11535;SDS011;5824;49.336;8.652;2023-02-28T01:27:26;4.50;;;3.13;;
11535;SDS011;5824;49.336;8.652;2023-02-28T01:29:51;4.17;;;3.20;;
11535;SDS011;5824;49.336;8.652;2023-02-28T01:32:17;4.47;;;3.27;;
11535;SDS011;5824;49.336;8.652;2023-02-28T01:34:43;3.93;;;3.20;;
11535;SDS011;5824;49.336;8.652;2023-02-28T01:37:08;4.37;;;3.00;;
11535;SDS011;5824;49.336;8.652;2023-02-28T01:39:34;5.97;;;3.40;;
11535;SDS011;5824;49.336;8.652;2023-02-28T01:41:59;3.63;;;3.03;;
11535;SDS011;5824;49.336;8.652;2023-02-28T01:47:24;3.33;;;2.80;;
11535;SDS011;5824;49.336;8.652;2023-02-28T01:49:53;4.10;;;2.93;;
11535;SDS011;5824;49.336;8.652;2023-02-28T01:52:19;4.23;;;3.23;;
11535;SDS011;5824;49.336;8.652;2023-02-28T01:54:46;4.67;;;3.50;;
11535;SDS011;5824;49.336;8.652;2023-02-28T01:57:16;4.30;;;3.57;;
11535;SDS011;5824;49.336;8.652;2023-02-28T02:02:23;4.80;;;3.30;;
11535;SDS011;5824;49.336;8.652;2023-02-28T02:04:51;4.20;;;3.37;;
11535;SDS011;5824;49.336;8.652;2023-02-28T02:07:42;4.23;;;3.20;;
11535;SDS011;5824;49.336;8.652;2023-02-28T02:10:42;3.90;;;3.17;;
11535;SDS011;5824;49.336;8.652;2023-02-28T02:16:04;3.53;;;3.17;;
11535;SDS011;5824;49.336;8.652;2023-02-28T02:19:02;3.60;;;2.90;;
11535;SDS011;5824;49.336;8.652;2023-02-28T02:32:56;8.90;;;3.67;;
11535;SDS011;5824;49.336;8.652;2023-02-28T02:35:43;11.03;;;3.80;;
11535;SDS011;5824;49.336;8.652;2023-02-28T02:43:53;6.67;;;4.10;;
11535;SDS011;5824;49.336;8.652;2023-02-28T02:46:39;4.70;;;3.77;;
11535;SDS011;5824;49.336;8.652;2023-02-28T02:49:09;4.27;;;3.77;;
11535;SDS011;5824;49.336;8.652;2023-02-28T02:51:47;4.80;;;3.50;;
11535;SDS011;5824;49.336;8.652;2023-02-28T02:54:16;3.40;;;3.10;;
11535;SDS011;5824;49.336;8.652;2023-02-28T02:56:46;3.90;;;3.30;;
11535;SDS011;5824;49.336;8.652;2023-02-28T02:59:13;3.80;;;3.37;;
11535;SDS011;5824;49.336;8.652;2023-02-28T03:01:45;5.60;;;3.77;;
11535;SDS011;5824;49.336;8.652;2023-02-28T03:04:18;5.10;;;3.90;;
11535;SDS011;5824;49.336;8.652;2023-02-28T03:06:46;5.77;;;3.90;;
11535;SDS011;5824;49.336;8.652;2023-02-28T03:09:11;7.83;;;3.67;;
11535;SDS011;5824;49.336;8.652;2023-02-28T03:11:37;8.20;;;3.50;;
11535;SDS011;5824;49.336;8.652;2023-02-28T03:17:12;3.87;;;3.20;;
11535;SDS011;5824;49.336;8.652;2023-02-28T03:25:31;6.50;;;4.07;;
11535;SDS011;5824;49.336;8.652;2023-02-28T03:31:29;4.30;;;3.80;;
11535;SDS011;5824;49.336;8.652;2023-02-28T03:33:53;6.07;;;4.23;;
11535;SDS011;5824;49.336;8.652;2023-02-28T03:36:38;3.90;;;3.50;;
11535;SDS011;5824;49.336;8.652;2023-02-28T03:39:10;5.93;;;3.90;;
11535;SDS011;5824;49.336;8.652;2023-02-28T03:44:16;5.30;;;4.10;;
11535;SDS011;5824;49.336;8.652;2023-02-28T03:46:54;12.53;;;4.03;;
11535;SDS011;5824;49.336;8.652;2023-02-28T03:49:42;6.07;;;3.97;;
11535;SDS011;5824;49.336;8.652;2023-02-28T03:52:18;6.30;;;3.60;;
11535;SDS011;5824;49.336;8.652;2023-02-28T03:54:50;6.97;;;3.90;;
11535;SDS011;5824;49.336;8.652;2023-02-28T03:57:33;6.30;;;4.20;;
11535;SDS011;5824;49.336;8.652;2023-02-28T04:00:09;6.87;;;4.30;;
11535;SDS011;5824;49.336;8.652;2023-02-28T04:02:39;6.47;;;3.97;;
11535;SDS011;5824;49.336;8.652;2023-02-28T04:05:05;7.03;;;4.30;;
11535;SDS011;5824;49.336;8.652;2023-02-28T04:07:31;6.90;;;4.23;;
11535;SDS011;5824;49.336;8.652;2023-02-28T04:09:57;7.50;;;4.30;;
11535;SDS011;5824;49.336;8.652;2023-02-28T04:12:23;5.73;;;4.20;;
11535;SDS011;5824;49.336;8.652;2023-02-28T04:14:49;6.50;;;4.23;;
11535;SDS011;5824;49.336;8.652;2023-02-28T04:17:15;7.03;;;4.27;;
11535;SDS011;5824;49.336;8.652;2023-02-28T04:19:41;6.77;;;4.60;;
11535;SDS011;5824;49.336;8.652;2023-02-28T04:22:07;5.30;;;4.13;;
11535;SDS011;5824;49.336;8.652;2023-02-28T04:24:34;5.67;;;4.10;;
11535;SDS011;5824;49.336;8.652;2023-02-28T04:27:00;4.80;;;4.10;;
11535;SDS011;5824;49.336;8.652;2023-02-28T04:29:26;6.00;;;4.57;;
11535;SDS011;5824;49.336;8.652;2023-02-28T04:31:57;4.50;;;3.37;;
11535;SDS011;5824;49.336;8.652;2023-02-28T04:34:23;6.33;;;4.73;;
11535;SDS011;5824;49.336;8.652;2023-02-28T04:36:50;5.37;;;4.50;;
11535;SDS011;5824;49.336;8.652;2023-02-28T04:39:18;6.23;;;4.80;;
11535;SDS011;5824;49.336;8.652;2023-02-28T04:41:44;6.53;;;4.40;;
11535;SDS011;5824;49.336;8.652;2023-02-28T04:44:10;7.53;;;4.90;;
11535;SDS011;5824;49.336;8.652;2023-02-28T04:46:36;11.13;;;4.20;;
11535;SDS011;5824;49.336;8.652;2023-02-28T04:49:02;7.50;;;4.53;;
11535;SDS011;5824;49.336;8.652;2023-02-28T04:51:27;7.97;;;5.33;;
11535;SDS011;5824;49.336;8.652;2023-02-28T04:53:53;6.60;;;4.60;;
11535;SDS011;5824;49.336;8.652;2023-02-28T04:56:19;6.43;;;4.20;;
11535;SDS011;5824;49.336;8.652;2023-02-28T04:58:45;6.83;;;4.77;;
11535;SDS011;5824;49.336;8.652;2023-02-28T05:03:47;5.77;;;4.53;;
11535;SDS011;5824;49.336;8.652;2023-02-28T05:06:13;5.13;;;4.37;;
11535;SDS011;5824;49.336;8.652;2023-02-28T05:08:39;7.10;;;4.73;;
11535;SDS011;5824;49.336;8.652;2023-02-28T05:11:24;6.63;;;4.63;;
11535;SDS011;5824;49.336;8.652;2023-02-28T05:13:53;8.27;;;4.70;;
11535;SDS011;5824;49.336;8.652;2023-02-28T05:16:19;7.60;;;4.60;;
11535;SDS011;5824;49.336;8.652;2023-02-28T05:18:45;6.23;;;4.60;;
11535;SDS011;5824;49.336;8.652;2023-02-28T05:21:21;6.30;;;4.63;;
11535;SDS011;5824;49.336;8.652;2023-02-28T05:23:50;8.03;;;5.87;;
11535;SDS011;5824;49.336;8.652;2023-02-28T05:26:16;7.40;;;4.50;;
11535;SDS011;5824;49.336;8.652;2023-02-28T05:28:41;7.50;;;4.33;;
11535;SDS011;5824;49.336;8.652;2023-02-28T05:31:07;6.77;;;4.47;;
11535;SDS011;5824;49.336;8.652;2023-02-28T05:33:35;8.23;;;5.10;;
11535;SDS011;5824;49.336;8.652;2023-02-28T05:36:01;5.90;;;4.70;;
11535;SDS011;5824;49.336;8.652;2023-02-28T05:38:26;7.93;;;4.63;;
11535;SDS011;5824;49.336;8.652;2023-02-28T05:40:52;5.20;;;4.20;;
11535;SDS011;5824;49.336;8.652;2023-02-28T05:43:18;5.83;;;4.57;;
11535;SDS011;5824;49.336;8.652;2023-02-28T05:45:44;6.10;;;4.73;;
11535;SDS011;5824;49.336;8.652;2023-02-28T05:48:09;5.90;;;4.13;;
11535;SDS011;5824;49.336;8.652;2023-02-28T05:50:35;6.77;;;4.80;;
11535;SDS011;5824;49.336;8.652;2023-02-28T05:53:01;7.07;;;4.70;;
11535;SDS011;5824;49.336;8.652;2023-02-28T05:55:26;6.17;;;4.40;;
11535;SDS011;5824;49.336;8.652;2023-02-28T05:57:52;6.03;;;4.70;;
11535;SDS011;5824;49.336;8.652;2023-02-28T06:00:17;6.10;;;4.13;;
11535;SDS011;5824;49.336;8.652;2023-02-28T06:02:43;6.90;;;4.80;;
11535;SDS011;5824;49.336;8.652;2023-02-28T06:05:16;6.23;;;4.10;;
11535;SDS011;5824;49.336;8.652;2023-02-28T06:07:43;7.03;;;4.00;;
11535;SDS011;5824;49.336;8.652;2023-02-28T06:10:11;5.80;;;4.23;;
11535;SDS011;5824;49.336;8.652;2023-02-28T06:12:38;8.50;;;5.30;;
11535;SDS011;5824;49.336;8.652;2023-02-28T06:15:03;7.03;;;5.20;;
11535;SDS011;5824;49.336;8.652;2023-02-28T06:17:29;7.60;;;4.80;;
11535;SDS011;5824;49.336;8.652;2023-02-28T06:19:55;7.17;;;5.27;;
11535;SDS011;5824;49.336;8.652;2023-02-28T06:22:20;7.90;;;3.90;;
11535;SDS011;5824;49.336;8.652;2023-02-28T06:24:46;5.60;;;4.60;;
11535;SDS011;5824;49.336;8.652;2023-02-28T06:27:11;7.43;;;4.67;;
11535;SDS011;5824;49.336;8.652;2023-02-28T06:29:37;7.83;;;5.10;;
11535;SDS011;5824;49.336;8.652;2023-02-28T06:32:04;5.90;;;4.73;;
11535;SDS011;5824;49.336;8.652;2023-02-28T06:34:30;8.07;;;5.20;;
11535;SDS011;5824;49.336;8.652;2023-02-28T06:36:56;8.03;;;5.00;;
11535;SDS011;5824;49.336;8.652;2023-02-28T06:39:24;7.17;;;4.50;;
11535;SDS011;5824;49.336;8.652;2023-02-28T06:41:49;5.67;;;4.33;;
11535;SDS011;5824;49.336;8.652;2023-02-28T06:44:17;6.90;;;5.10;;
11535;SDS011;5824;49.336;8.652;2023-02-28T06:46:43;8.30;;;4.93;;
11535;SDS011;5824;49.336;8.652;2023-02-28T06:49:10;8.83;;;5.17;;
11535;SDS011;5824;49.336;8.652;2023-02-28T06:51:37;6.33;;;5.00;;
11535;SDS011;5824;49.336;8.652;2023-02-28T06:54:04;7.27;;;5.40;;
11535;SDS011;5824;49.336;8.652;2023-02-28T06:56:33;9.05;;;5.50;;
11535;SDS011;5824;49.336;8.652;2023-02-28T06:58:59;9.27;;;5.97;;
11535;SDS011;5824;49.336;8.652;2023-02-28T07:01:25;9.20;;;5.70;;
11535;SDS011;5824;49.336;8.652;2023-02-28T07:03:52;7.07;;;5.20;;
11535;SDS011;5824;49.336;8.652;2023-02-28T07:06:19;11.80;;;5.97;;
11535;SDS011;5824;49.336;8.652;2023-02-28T07:08:47;10.90;;;5.77;;
11535;SDS011;5824;49.336;8.652;2023-02-28T07:11:14;8.53;;;6.30;;
11535;SDS011;5824;49.336;8.652;2023-02-28T07:13:39;8.67;;;5.50;;
11535;SDS011;5824;49.336;8.652;2023-02-28T07:16:05;8.80;;;6.00;;
11535;SDS011;5824;49.336;8.652;2023-02-28T07:18:34;9.30;;;6.60;;
11535;SDS011;5824;49.336;8.652;2023-02-28T07:21:03;7.40;;;5.97;;
11535;SDS011;5824;49.336;8.652;2023-02-28T07:23:31;13.53;;;5.60;;
11535;SDS011;5824;49.336;8.652;2023-02-28T07:25:57;8.27;;;5.37;;
11535;SDS011;5824;49.336;8.652;2023-02-28T07:28:23;8.40;;;6.03;;
11535;SDS011;5824;49.336;8.652;2023-02-28T07:30:49;7.43;;;5.13;;
11535;SDS011;5824;49.336;8.652;2023-02-28T07:33:14;8.90;;;5.63;;
11535;SDS011;5824;49.336;8.652;2023-02-28T07:35:40;8.53;;;5.47;;
11535;SDS011;5824;49.336;8.652;2023-02-28T07:38:06;7.67;;;5.57;;
11535;SDS011;5824;49.336;8.652;2023-02-28T07:40:35;8.33;;;5.40;;
11535;SDS011;5824;49.336;8.652;2023-02-28T07:43:01;7.03;;;5.37;;
11535;SDS011;5824;49.336;8.652;2023-02-28T07:45:28;8.10;;;5.60;;
11535;SDS011;5824;49.336;8.652;2023-02-28T07:47:54;7.10;;;5.33;;
11535;SDS011;5824;49.336;8.652;2023-02-28T07:50:20;12.43;;;6.00;;
11535;SDS011;5824;49.336;8.652;2023-02-28T07:52:46;8.00;;;5.90;;
11535;SDS011;5824;49.336;8.652;2023-02-28T07:55:12;7.67;;;5.97;;
11535;SDS011;5824;49.336;8.652;2023-02-28T07:57:38;8.87;;;6.27;;
11535;SDS011;5824;49.336;8.652;2023-02-28T08:00:05;9.03;;;5.83;;
11535;SDS011;5824;49.336;8.652;2023-02-28T08:02:37;9.20;;;6.27;;
11535;SDS011;5824;49.336;8.652;2023-02-28T08:05:03;11.43;;;6.57;;
11535;SDS011;5824;49.336;8.652;2023-02-28T08:07:29;7.70;;;5.53;;
11535;SDS011;5824;49.336;8.652;2023-02-28T08:09:55;10.10;;;6.33;;
11535;SDS011;5824;49.336;8.652;2023-02-28T08:12:20;11.57;;;6.13;;
11535;SDS011;5824;49.336;8.652;2023-02-28T08:14:46;8.50;;;5.87;;
11535;SDS011;5824;49.336;8.652;2023-02-28T08:17:11;7.50;;;5.50;;
11535;SDS011;5824;49.336;8.652;2023-02-28T08:19:37;9.37;;;6.57;;
11535;SDS011;5824;49.336;8.652;2023-02-28T08:22:02;8.20;;;5.27;;
11535;SDS011;5824;49.336;8.652;2023-02-28T08:24:28;8.77;;;6.07;;
11535;SDS011;5824;49.336;8.652;2023-02-28T08:26:54;10.23;;;6.33;;
11535;SDS011;5824;49.336;8.652;2023-02-28T08:29:20;8.13;;;5.47;;
11535;SDS011;5824;49.336;8.652;2023-02-28T08:31:45;9.83;;;6.17;;
11535;SDS011;5824;49.336;8.652;2023-02-28T08:34:12;7.20;;;5.60;;
11535;SDS011;5824;49.336;8.652;2023-02-28T08:36:39;9.10;;;6.50;;
11535;SDS011;5824;49.336;8.652;2023-02-28T08:39:05;8.37;;;6.30;;
11535;SDS011;5824;49.336;8.652;2023-02-28T08:41:31;9.57;;;6.30;;
11535;SDS011;5824;49.336;8.652;2023-02-28T08:43:57;9.27;;;6.37;;
11535;SDS011;5824;49.336;8.652;2023-02-28T08:46:23;8.50;;;5.80;;
11535;SDS011;5824;49.336;8.652;2023-02-28T08:48:52;7.87;;;5.77;;
11535;SDS011;5824;49.336;8.652;2023-02-28T08:51:19;8.23;;;5.83;;
11535;SDS011;5824;49.336;8.652;2023-02-28T08:53:51;9.30;;;5.90;;
11535;SDS011;5824;49.336;8.652;2023-02-28T08:56:18;11.37;;;6.07;;
11535;SDS011;5824;49.336;8.652;2023-02-28T08:58:45;13.20;;;5.87;;
11535;SDS011;5824;49.336;8.652;2023-02-28T09:03:39;8.43;;;6.33;;
11535;SDS011;5824;49.336;8.652;2023-02-28T09:06:06;11.53;;;7.13;;
11535;SDS011;5824;49.336;8.652;2023-02-28T09:08:32;8.73;;;6.50;;
11535;SDS011;5824;49.336;8.652;2023-02-28T09:10:58;7.70;;;6.00;;
11535;SDS011;5824;49.336;8.652;2023-02-28T09:13:24;9.03;;;6.33;;
11535;SDS011;5824;49.336;8.652;2023-02-28T09:15:51;8.30;;;6.87;;
11535;SDS011;5824;49.336;8.652;2023-02-28T09:18:17;10.50;;;7.13;;
11535;SDS011;5824;49.336;8.652;2023-02-28T09:20:43;9.13;;;7.53;;
11535;SDS011;5824;49.336;8.652;2023-02-28T09:23:09;12.10;;;8.60;;
11535;SDS011;5824;49.336;8.652;2023-02-28T09:25:36;12.40;;;8.97;;
11535;SDS011;5824;49.336;8.652;2023-02-28T09:28:02;11.70;;;8.60;;
11535;SDS011;5824;49.336;8.652;2023-02-28T09:30:28;14.70;;;8.67;;
11535;SDS011;5824;49.336;8.652;2023-02-28T09:32:54;10.93;;;8.53;;
11535;SDS011;5824;49.336;8.652;2023-02-28T09:35:20;10.80;;;8.53;;
11535;SDS011;5824;49.336;8.652;2023-02-28T09:37:47;10.00;;;8.53;;
11535;SDS011;5824;49.336;8.652;2023-02-28T09:40:14;11.90;;;8.43;;
11535;SDS011;5824;49.336;8.652;2023-02-28T09:42:44;11.60;;;8.90;;
11535;SDS011;5824;49.336;8.652;2023-02-28T09:45:22;11.50;;;9.23;;
11535;SDS011;5824;49.336;8.652;2023-02-28T09:47:58;10.43;;;9.03;;
11535;SDS011;5824;49.336;8.652;2023-02-28T09:50:36;10.37;;;9.20;;
11535;SDS011;5824;49.336;8.652;2023-02-28T09:53:15;10.13;;;8.57;;
11535;SDS011;5824;49.336;8.652;2023-02-28T09:55:58;10.30;;;8.60;;
11535;SDS011;5824;49.336;8.652;2023-02-28T10:03:59;12.33;;;9.00;;
11535;SDS011;5824;49.336;8.652;2023-02-28T10:06:33;10.77;;;8.33;;
11535;SDS011;5824;49.336;8.652;2023-02-28T10:09:14;10.03;;;8.90;;
11535;SDS011;5824;49.336;8.652;2023-02-28T10:11:42;12.37;;;9.30;;
11535;SDS011;5824;49.336;8.652;2023-02-28T10:14:12;11.20;;;9.00;;
11535;SDS011;5824;49.336;8.652;2023-02-28T10:16:46;10.70;;;8.90;;
11535;SDS011;5824;49.336;8.652;2023-02-28T10:22:19;12.60;;;9.40;;
11535;SDS011;5824;49.336;8.652;2023-02-28T10:24:50;11.87;;;9.50;;
11535;SDS011;5824;49.336;8.652;2023-02-28T10:27:18;11.87;;;9.63;;
11535;SDS011;5824;49.336;8.652;2023-02-28T10:29:46;11.53;;;9.37;;
11535;SDS011;5824;49.336;8.652;2023-02-28T10:32:15;10.77;;;9.10;;
11535;SDS011;5824;49.336;8.652;2023-02-28T10:34:43;14.60;;;10.30;;
11535;SDS011;5824;49.336;8.652;2023-02-28T10:37:10;15.50;;;9.70;;
11535;SDS011;5824;49.336;8.652;2023-02-28T10:39:38;11.63;;;9.10;;
11535;SDS011;5824;49.336;8.652;2023-02-28T10:42:18;10.60;;;9.50;;
11535;SDS011;5824;49.336;8.652;2023-02-28T10:47:48;10.70;;;9.23;;
11535;SDS011;5824;49.336;8.652;2023-02-28T10:50:26;11.23;;;9.97;;
11535;SDS011;5824;49.336;8.652;2023-02-28T10:52:52;11.43;;;9.60;;
11535;SDS011;5824;49.336;8.652;2023-02-28T10:55:25;11.50;;;9.70;;
11535;SDS011;5824;49.336;8.652;2023-02-28T10:57:51;12.20;;;9.90;;
11535;SDS011;5824;49.336;8.652;2023-02-28T11:00:22;11.90;;;9.60;;
11535;SDS011;5824;49.336;8.652;2023-02-28T11:02:48;11.13;;;9.43;;
11535;SDS011;5824;49.336;8.652;2023-02-28T11:07:51;11.57;;;9.80;;
11535;SDS011;5824;49.336;8.652;2023-02-28T11:10:19;11.77;;;9.20;;
11535;SDS011;5824;49.336;8.652;2023-02-28T11:12:49;13.13;;;10.60;;
11535;SDS011;5824;49.336;8.652;2023-02-28T11:15:24;11.63;;;9.30;;
11535;SDS011;5824;49.336;8.652;2023-02-28T11:20:30;12.20;;;10.20;;
11535;SDS011;5824;49.336;8.652;2023-02-28T11:22:58;11.50;;;10.30;;
11535;SDS011;5824;49.336;8.652;2023-02-28T11:25:28;10.33;;;9.23;;
11535;SDS011;5824;49.336;8.652;2023-02-28T11:28:05;14.77;;;10.20;;
11535;SDS011;5824;49.336;8.652;2023-02-28T11:30:49;13.93;;;10.27;;
11535;SDS011;5824;49.336;8.652;2023-02-28T11:33:45;11.13;;;9.93;;
11535;SDS011;5824;49.336;8.652;2023-02-28T11:36:20;10.90;;;9.80;;
11535;SDS011;5824;49.336;8.652;2023-02-28T11:38:51;11.60;;;9.83;;
11535;SDS011;5824;49.336;8.652;2023-02-28T11:46:58;11.90;;;9.40;;
11535;SDS011;5824;49.336;8.652;2023-02-28T11:49:30;10.53;;;9.43;;
11535;SDS011;5824;49.336;8.652;2023-02-28T11:52:01;12.87;;;10.33;;
11535;SDS011;5824;49.336;8.652;2023-02-28T12:05:34;12.07;;;10.77;;
11535;SDS011;5824;49.336;8.652;2023-02-28T12:08:40;12.60;;;10.40;;
11535;SDS011;5824;49.336;8.652;2023-02-28T12:14:20;14.43;;;11.27;;
11535;SDS011;5824;49.336;8.652;2023-02-28T12:17:27;12.80;;;10.70;;
11535;SDS011;5824;49.336;8.652;2023-02-28T12:20:34;12.23;;;10.20;;
11535;SDS011;5824;49.336;8.652;2023-02-28T12:25:46;18.63;;;13.17;;
11535;SDS011;5824;49.336;8.652;2023-02-28T12:28:21;15.13;;;11.70;;
11535;SDS011;5824;49.336;8.652;2023-02-28T12:31:01;14.53;;;11.53;;
11535;SDS011;5824;49.336;8.652;2023-02-28T12:33:36;15.93;;;11.87;;
11535;SDS011;5824;49.336;8.652;2023-02-28T12:36:11;14.10;;;11.57;;
11535;SDS011;5824;49.336;8.652;2023-02-28T12:38:47;13.43;;;10.70;;
11535;SDS011;5824;49.336;8.652;2023-02-28T12:44:04;13.33;;;10.70;;
11535;SDS011;5824;49.336;8.652;2023-02-28T12:46:40;14.13;;;11.20;;
11535;SDS011;5824;49.336;8.652;2023-02-28T12:49:13;14.37;;;11.50;;
11535;SDS011;5824;49.336;8.652;2023-02-28T12:51:46;12.57;;;9.90;;
11535;SDS011;5824;49.336;8.652;2023-02-28T12:54:33;14.50;;;11.07;;
11535;SDS011;5824;49.336;8.652;2023-02-28T12:57:15;12.60;;;10.60;;
11535;SDS011;5824;49.336;8.652;2023-02-28T13:00:00;14.80;;;11.00;;
11535;SDS011;5824;49.336;8.652;2023-02-28T13:05:28;13.77;;;10.77;;
11535;SDS011;5824;49.336;8.652;2023-02-28T13:08:07;13.20;;;10.67;;
11535;SDS011;5824;49.336;8.652;2023-02-28T13:10:43;13.50;;;11.30;;
11535;SDS011;5824;49.336;8.652;2023-02-28T13:13:19;15.00;;;12.23;;
11535;SDS011;5824;49.336;8.652;2023-02-28T13:16:01;14.07;;;11.73;;
11535;SDS011;5824;49.336;8.652;2023-02-28T13:18:45;16.17;;;12.00;;
11535;SDS011;5824;49.336;8.652;2023-02-28T13:21:44;15.70;;;11.33;;
11535;SDS011;5824;49.336;8.652;2023-02-28T13:24:07;13.10;;;10.90;;
11535;SDS011;5824;49.336;8.652;2023-02-28T13:35:34;14.90;;;12.07;;
11535;SDS011;5824;49.336;8.652;2023-02-28T13:47:31;11.07;;;9.20;;
11535;SDS011;5824;49.336;8.652;2023-02-28T13:58:27;11.60;;;9.53;;
11535;SDS011;5824;49.336;8.652;2023-02-28T14:06:51;21.50;;;11.73;;
11535;SDS011;5824;49.336;8.652;2023-02-28T14:09:21;18.53;;;11.67;;
11535;SDS011;5824;49.336;8.652;2023-02-28T14:11:50;15.50;;;11.40;;
11535;SDS011;5824;49.336;8.652;2023-02-28T14:17:01;15.07;;;12.77;;
11535;SDS011;5824;49.336;8.652;2023-02-28T14:19:37;28.43;;;11.40;;
11535;SDS011;5824;49.336;8.652;2023-02-28T14:25:08;15.93;;;11.67;;
11535;SDS011;5824;49.336;8.652;2023-02-28T14:33:26;14.13;;;9.63;;
11535;SDS011;5824;49.336;8.652;2023-02-28T14:36:18;11.70;;;9.87;;
11535;SDS011;5824;49.336;8.652;2023-02-28T14:41:24;12.77;;;10.10;;
11535;SDS011;5824;49.336;8.652;2023-02-28T14:43:56;11.50;;;8.77;;
11535;SDS011;5824;49.336;8.652;2023-02-28T14:46:25;10.87;;;8.70;;
11535;SDS011;5824;49.336;8.652;2023-02-28T14:48:58;10.77;;;8.93;;
11535;SDS011;5824;49.336;8.652;2023-02-28T14:51:24;13.00;;;8.80;;
11535;SDS011;5824;49.336;8.652;2023-02-28T14:53:52;10.90;;;8.40;;
11535;SDS011;5824;49.336;8.652;2023-02-28T14:56:23;14.70;;;8.93;;
11535;SDS011;5824;49.336;8.652;2023-02-28T14:58:53;11.00;;;8.93;;
11535;SDS011;5824;49.336;8.652;2023-02-28T15:01:21;11.87;;;9.03;;
11535;SDS011;5824;49.336;8.652;2023-02-28T15:03:48;12.40;;;8.70;;
11535;SDS011;5824;49.336;8.652;2023-02-28T15:06:23;10.03;;;8.47;;
11535;SDS011;5824;49.336;8.652;2023-02-28T15:09:06;10.07;;;8.73;;
11535;SDS011;5824;49.336;8.652;2023-02-28T15:11:38;12.87;;;9.77;;
11535;SDS011;5824;49.336;8.652;2023-02-28T15:14:05;13.60;;;9.53;;
11535;SDS011;5824;49.336;8.652;2023-02-28T15:16:37;11.70;;;9.00;;
11535;SDS011;5824;49.336;8.652;2023-02-28T15:19:20;12.20;;;8.87;;
11535;SDS011;5824;49.336;8.652;2023-02-28T15:21:51;14.83;;;9.20;;
11535;SDS011;5824;49.336;8.652;2023-02-28T15:24:41;14.27;;;10.10;;
11535;SDS011;5824;49.336;8.652;2023-02-28T15:27:14;13.60;;;10.00;;
11535;SDS011;5824;49.336;8.652;2023-02-28T15:29:49;12.63;;;9.83;;
11535;SDS011;5824;49.336;8.652;2023-02-28T15:34:51;12.30;;;9.30;;
11535;SDS011;5824;49.336;8.652;2023-02-28T15:39:58;13.40;;;9.33;;
11535;SDS011;5824;49.336;8.652;2023-02-28T15:42:37;19.80;;;8.27;;
11535;SDS011;5824;49.336;8.652;2023-02-28T15:45:03;11.83;;;9.03;;
11535;SDS011;5824;49.336;8.652;2023-02-28T15:47:29;11.63;;;8.97;;
11535;SDS011;5824;49.336;8.652;2023-02-28T15:49:59;12.20;;;9.20;;
11535;SDS011;5824;49.336;8.652;2023-02-28T15:52:33;15.57;;;10.03;;
11535;SDS011;5824;49.336;8.652;2023-02-28T15:55:22;12.57;;;9.07;;
11535;SDS011;5824;49.336;8.652;2023-02-28T15:57:53;13.00;;;8.70;;
11535;SDS011;5824;49.336;8.652;2023-02-28T16:00:22;11.73;;;8.53;;
11535;SDS011;5824;49.336;8.652;2023-02-28T16:02:50;11.67;;;8.30;;
11535;SDS011;5824;49.336;8.652;2023-02-28T16:05:23;13.97;;;8.60;;
11535;SDS011;5824;49.336;8.652;2023-02-28T16:07:55;12.30;;;8.60;;
11535;SDS011;5824;49.336;8.652;2023-02-28T16:10:22;13.33;;;8.80;;
11535;SDS011;5824;49.336;8.652;2023-02-28T16:12:52;11.43;;;8.33;;
11535;SDS011;5824;49.336;8.652;2023-02-28T16:15:23;10.20;;;8.37;;
11535;SDS011;5824;49.336;8.652;2023-02-28T16:17:54;9.73;;;7.53;;
11535;SDS011;5824;49.336;8.652;2023-02-28T16:20:22;12.47;;;8.80;;
11535;SDS011;5824;49.336;8.652;2023-02-28T16:22:49;13.03;;;8.47;;
11535;SDS011;5824;49.336;8.652;2023-02-28T16:25:17;12.37;;;8.43;;
11535;SDS011;5824;49.336;8.652;2023-02-28T16:27:45;10.93;;;9.00;;
11535;SDS011;5824;49.336;8.652;2023-02-28T16:30:22;14.87;;;8.73;;
11535;SDS011;5824;49.336;8.652;2023-02-28T16:32:50;13.00;;;8.70;;
11535;SDS011;5824;49.336;8.652;2023-02-28T16:35:17;12.50;;;8.93;;
11535;SDS011;5824;49.336;8.652;2023-02-28T16:37:44;17.23;;;9.77;;
11535;SDS011;5824;49.336;8.652;2023-02-28T16:40:14;11.47;;;8.50;;
11535;SDS011;5824;49.336;8.652;2023-02-28T16:42:41;11.80;;;8.37;;
11535;SDS011;5824;49.336;8.652;2023-02-28T16:45:11;10.37;;;8.20;;
11535;SDS011;5824;49.336;8.652;2023-02-28T16:47:44;8.97;;;7.50;;
11535;SDS011;5824;49.336;8.652;2023-02-28T16:50:24;13.00;;;9.10;;
11535;SDS011;5824;49.336;8.652;2023-02-28T16:52:52;11.47;;;8.60;;
11535;SDS011;5824;49.336;8.652;2023-02-28T16:55:19;10.67;;;8.20;;
11535;SDS011;5824;49.336;8.652;2023-02-28T16:57:52;11.73;;;8.70;;
11535;SDS011;5824;49.336;8.652;2023-02-28T17:00:19;9.77;;;7.67;;
11535;SDS011;5824;49.336;8.652;2023-02-28T17:02:45;14.00;;;9.07;;
11535;SDS011;5824;49.336;8.652;2023-02-28T17:05:11;11.93;;;8.63;;
11535;SDS011;5824;49.336;8.652;2023-02-28T17:07:38;14.40;;;9.03;;
11535;SDS011;5824;49.336;8.652;2023-02-28T17:10:18;15.07;;;8.77;;
11535;SDS011;5824;49.336;8.652;2023-02-28T17:12:49;14.50;;;10.20;;
11535;SDS011;5824;49.336;8.652;2023-02-28T17:15:15;12.13;;;9.10;;
11535;SDS011;5824;49.336;8.652;2023-02-28T17:17:42;10.93;;;8.00;;
11535;SDS011;5824;49.336;8.652;2023-02-28T17:20:19;11.50;;;8.37;;
11535;SDS011;5824;49.336;8.652;2023-02-28T17:22:49;12.80;;;8.60;;
11535;SDS011;5824;49.336;8.652;2023-02-28T17:25:16;13.30;;;9.23;;
11535;SDS011;5824;49.336;8.652;2023-02-28T17:27:42;11.33;;;8.03;;
11535;SDS011;5824;49.336;8.652;2023-02-28T17:30:10;13.00;;;8.57;;
11535;SDS011;5824;49.336;8.652;2023-02-28T17:32:42;10.40;;;7.87;;